This is the latest recevied weather packets stored in our database for station/object N6HGA-1. If no packets are shown the sender has not sent any weather packets the latest 10 day(s).
| Time | Temp. | Humidity | Pressure | Rain* | Wind** | Luminosity | Snow |
|---|---|---|---|---|---|---|---|
| 1777938327 | 16.11° C | 79% | - | 0 mm | - | - | - |
| 1777938025 | 15.56° C | 80% | - | 0 mm | - | - | - |
| 1777937421 | 16.11° C | 79% | - | 0 mm | - | - | - |
| 1777937112 | 16.11° C | 78% | - | 0 mm | - | - | - |
| 1777936809 | 16.11° C | 78% | - | 0 mm | - | - | - |
| 1777936202 | 17.22° C | 74% | - | 0 mm | - | - | - |
| 1777935901 | 17.22° C | 73% | - | 0 mm | - | - | - |
| 1777935601 | 17.78° C | 72% | - | 0 mm | - | - | - |
| 1777935301 | 17.78° C | 71% | - | 0 mm | - | - | - |
| 1777935001 | 17.78° C | 72% | - | 0 mm | - | - | - |
| 1777934394 | 17.22° C | 74% | - | 0 mm | - | - | - |
| 1777934077 | 17.22° C | 74% | - | 0 mm | - | - | - |
| 1777933774 | 16.67° C | 75% | - | 0 mm | - | - | - |
| 1777933474 | 16.67° C | 75% | - | 0 mm | - | - | - |
| 1777932864 | 17.78° C | 73% | - | 0 mm | - | - | - |
| 1777932564 | 17.78° C | 73% | - | 0 mm | - | - | - |
| 1777932261 | 17.78° C | 72% | - | 0 mm | - | - | - |
| 1777931961 | 17.78° C | 74% | - | 0 mm | - | - | - |
| 1777931661 | 17.78° C | 73% | - | 0 mm | - | - | - |
| 1777931358 | 17.78° C | 74% | - | 0 mm | - | - | - |
| 1777931058 | 17.22° C | 75% | - | 0 mm | - | - | - |
| 1777930757 | 17.22° C | 74% | - | 0 mm | - | - | - |
| 1777930457 | 17.22° C | 74% | - | 0 mm | - | - | - |
| 1777930156 | 17.78° C | 73% | - | 0 mm | - | - | - |
| 1777929855 | 17.22° C | 74% | - | 0 mm | - | - | - |
* Rain since midnight (hover to see other rain measurements)
** Current wind speed in m/s (hover to see current wind gust speed)